createdAt,value
2022-12-23T00:08:56.429Z,10.60
2022-12-23T00:18:59.613Z,10.60
2022-12-23T00:29:01.334Z,10.50
2022-12-23T00:39:04.451Z,10.50
2022-12-23T00:49:06.240Z,10.40
2022-12-23T00:59:09.337Z,10.50
2022-12-23T01:09:11.130Z,10.50
2022-12-23T01:19:14.450Z,10.40
2022-12-23T01:29:16.228Z,10.30
2022-12-23T01:39:19.439Z,10.20
2022-12-23T01:49:21.268Z,10.10
2022-12-23T01:59:24.766Z,10.10
2022-12-23T02:09:27.608Z,10.10
2022-12-23T02:19:39.499Z,10.00
2022-12-23T02:29:56.067Z,10.00
2022-12-23T02:40:02.850Z,9.90
2022-12-23T02:50:09.358Z,9.80
2022-12-23T03:00:13.347Z,9.70
2022-12-23T03:10:18.674Z,9.60
2022-12-23T03:20:25.753Z,9.60
2022-12-23T03:30:28.371Z,9.60
2022-12-23T03:40:35.311Z,9.50
2022-12-23T03:50:38.719Z,9.50
2022-12-23T04:00:44.531Z,9.40
2022-12-23T04:10:46.376Z,9.50
2022-12-23T04:20:49.515Z,9.40
2022-12-23T04:30:51.232Z,9.40
2022-12-23T04:40:54.331Z,9.40
2022-12-23T04:50:56.237Z,9.30
2022-12-23T05:01:02.852Z,9.40
2022-12-23T05:11:04.791Z,9.50
2022-12-23T05:21:07.918Z,9.40
2022-12-23T05:31:10.416Z,9.50
2022-12-23T05:41:13.622Z,9.40
2022-12-23T05:51:15.368Z,9.50
2022-12-23T06:01:18.496Z,9.50
2022-12-23T06:11:20.205Z,9.40
2022-12-23T06:21:23.336Z,9.40
2022-12-23T06:31:25.142Z,9.30
2022-12-23T06:41:28.260Z,9.10
2022-12-23T06:51:30.006Z,9.10
2022-12-23T07:01:33.605Z,9.00
2022-12-23T07:11:35.426Z,8.90
2022-12-23T07:21:38.576Z,8.80
2022-12-23T07:31:41.217Z,8.90
2022-12-23T07:41:44.596Z,8.90
2022-12-23T07:51:46.384Z,8.90
2022-12-23T08:01:49.564Z,9.00
2022-12-23T08:11:51.450Z,9.10
2022-12-23T08:21:54.586Z,9.10
2022-12-23T08:31:56.396Z,9.10
2022-12-23T08:41:59.557Z,8.90
2022-12-23T08:52:01.280Z,8.90
2022-12-23T09:02:04.526Z,9.00
2022-12-23T09:12:06.612Z,9.20
2022-12-23T09:22:09.771Z,9.10
2022-12-23T09:32:11.532Z,9.00
2022-12-23T09:42:23.200Z,9.10
2022-12-23T09:52:26.004Z,9.00
2022-12-23T10:02:33.527Z,9.20
2022-12-23T10:12:40.120Z,9.40
2022-12-23T10:22:44.671Z,9.60
2022-12-23T10:32:54.326Z,9.70
2022-12-23T10:43:01.234Z,9.90
2022-12-23T10:53:04.548Z,9.90
2022-12-23T11:03:15.286Z,10.10
2022-12-23T11:13:24.018Z,10.30
2022-12-23T11:23:28.193Z,10.50
2022-12-23T11:33:31.366Z,10.70
2022-12-23T11:43:34.507Z,11.20
2022-12-23T11:53:36.344Z,12.00
2022-12-23T12:03:47.006Z,12.60
2022-12-23T12:13:49.438Z,12.90
2022-12-23T12:24:14.794Z,13.20
2022-12-23T12:34:24.416Z,13.20
2022-12-23T12:44:30.537Z,13.20
2022-12-23T12:54:33.634Z,13.10
2022-12-23T13:04:46.015Z,13.40
2022-12-23T13:14:51.663Z,13.50
2022-12-23T13:24:57.513Z,13.30
2022-12-23T13:35:03.335Z,13.70
2022-12-23T13:45:13.498Z,13.30
2022-12-23T13:55:21.758Z,13.10
2022-12-23T14:05:35.230Z,12.80
2022-12-23T14:15:57.713Z,12.90
2022-12-23T14:26:11.963Z,13.20
2022-12-23T14:36:14.772Z,13.20
2022-12-23T14:46:30.924Z,13.00
2022-12-23T14:56:41.837Z,12.90
2022-12-23T15:06:46.356Z,13.00
2022-12-23T15:16:48.135Z,12.90
2022-12-23T15:27:24.587Z,12.50
2022-12-23T15:37:16.824Z,12.20
2022-12-23T15:47:27.872Z,11.90
2022-12-23T15:57:30.087Z,11.60
2022-12-23T16:07:34.489Z,11.40
2022-12-23T16:17:36.617Z,11.30
2022-12-23T16:27:40.780Z,11.10
2022-12-23T16:37:46.100Z,11.10
2022-12-23T16:47:55.221Z,10.90
2022-12-23T16:57:56.997Z,10.90
2022-12-23T17:08:00.115Z,11.00
2022-12-23T17:18:01.846Z,11.30
2022-12-23T17:28:10.130Z,11.20
2022-12-23T17:38:13.154Z,11.20
2022-12-23T17:48:21.319Z,11.10
2022-12-23T17:58:24.941Z,10.90
2022-12-23T18:08:28.094Z,10.80
2022-12-23T18:18:40.397Z,10.60
2022-12-23T18:28:48.924Z,10.70
2022-12-23T18:38:50.979Z,10.70
2022-12-23T18:48:54.212Z,10.50
2022-12-23T18:58:55.969Z,10.60
2022-12-23T19:08:59.171Z,10.40
2022-12-23T19:19:00.957Z,10.10
2022-12-23T19:29:04.081Z,10.00
2022-12-23T19:39:05.853Z,9.90
2022-12-23T19:49:11.695Z,9.80
2022-12-23T19:59:17.853Z,9.70
2022-12-23T20:09:21.104Z,9.80
2022-12-23T20:19:22.870Z,9.80
2022-12-23T20:29:25.995Z,9.60
2022-12-23T20:39:27.746Z,9.60
2022-12-23T20:49:30.863Z,9.40
2022-12-23T20:59:32.649Z,9.40
2022-12-23T21:09:35.816Z,9.30
2022-12-23T21:19:54.755Z,9.30
2022-12-23T21:30:14.017Z,9.40
2022-12-23T21:40:17.180Z,9.30
2022-12-23T21:50:18.914Z,9.40
2022-12-23T22:00:22.115Z,9.30
2022-12-23T22:10:23.847Z,9.30
2022-12-23T22:20:26.962Z,9.40
2022-12-23T22:30:28.671Z,9.50
2022-12-23T22:40:31.771Z,9.50
2022-12-23T22:50:33.533Z,9.70
2022-12-23T23:00:36.813Z,9.70
2022-12-23T23:10:38.561Z,9.60
2022-12-23T23:20:41.686Z,9.60
2022-12-23T23:30:43.426Z,9.50
2022-12-23T23:40:48.019Z,9.50
2022-12-23T23:50:49.806Z,9.50
